ADDS METAR Data INFO
IDs: Format: Raw Decoded Include TAF

Data at: 0319 UTC 16 Dec 2017

KERV 160315Z AUTO 00000KT 10SM CLR 04/00 A3026 RMK AO2 T00361005
KERV 160255Z AUTO 00000KT 10SM CLR 03/M01 A3026 RMK AO2 T00301010
KERV 160235Z AUTO 00000KT 10SM CLR 05/M01 A3026 RMK AO2 T00481011
KERV 160215Z AUTO 00000KT 10SM CLR 05/M01 A3026 RMK AO2 T00491010
KERV 160155Z AUTO 00000KT 10SM CLR 04/M01 A3026 RMK AO2 T00351012
KERV 160135Z AUTO 00000KT 10SM CLR 04/M01 A3026 RMK AO2 T00361014
KERV 160115Z AUTO 00000KT 10SM CLR 04/M01 A3025 RMK AO2 T00361014
KERV 160055Z AUTO 00000KT 10SM CLR 06/M03 A3025 RMK AO2 T00631026
KERV 160035Z AUTO 00000KT 10SM CLR 07/M02 A3024 RMK AO2 T00651018
KERV 160015Z AUTO 00000KT 10SM CLR 06/M02 A3024 RMK AO2 T00631018
KERV 152355Z AUTO 00000KT 10SM CLR 09/M03 A3023 RMK AO2 T00891035 10144 20089
KERV 152335Z AUTO 03003KT 10SM CLR 11/M04 A3023 RMK AO2 T01091042
KERV 152315Z AUTO 00000KT 10SM CLR 12/M06 A3024 RMK AO2 T01211056
KERV 152255Z AUTO 01003KT 10SM CLR 12/M08 A3024 RMK AO2 T01211078
KERV 152235Z AUTO 03004KT 10SM CLR 14/M07 A3024 RMK AO2 T01351073
KERV 152215Z AUTO 00000KT 10SM CLR 14/M07 A3024 RMK AO2 T01391070
KERV 152155Z AUTO 00000KT 10SM CLR 14/M07 A3025 RMK AO2 T01411071
KERV 152135Z AUTO 02005KT 10SM CLR 14/M07 A3022 RMK AO2 T01411074
KERV 152115Z AUTO 01007KT 10SM CLR 14/M07 A3023 RMK AO2 T01411072
KERV 152055Z AUTO 01006KT 10SM CLR 14/M07 A3023 RMK AO2 T01441070
KERV 152035Z AUTO 33006KT 10SM CLR 14/M07 A3023 RMK AO2 T01401073
KERV 152015Z AUTO 36006KT 10SM CLR 14/M07 A3025 RMK AO2 T01381071
KERV 151955Z AUTO 01005KT 10SM CLR 14/M07 A3026 RMK AO2 T01371067
KERV 151935Z AUTO 03008KT 10SM CLR 14/M05 A3026 RMK AO2 T01351048
KERV 151915Z AUTO 02007G15KT 10SM CLR 12/M04 A3028 RMK AO2 T01201040
KERV 151855Z AUTO 35010KT 10SM CLR 13/M03 A3029 RMK AO2 T01331031
KERV 151835Z AUTO 01012KT 340V040 10SM CLR 14/M03 A3029 RMK AO2 T01351026
KERV 151815Z AUTO 03011KT 10SM CLR 12/M02 A3030 RMK AO2 T01171024
KERV 151755Z AUTO 02009G15KT 10SM CLR 11/M02 A3032 RMK AO2 T01111024 10112 20036
KERV 151735Z AUTO 01007KT 10SM CLR 11/M02 A3032 RMK AO2 T01061019
KERV 151715Z AUTO 35008KT 10SM CLR 11/M02 A3033 RMK AO2 T01061017
KERV 151655Z AUTO 36007KT 10SM CLR 11/M01 A3034 RMK AO2 T01061011
KERV 151635Z AUTO 34009KT 10SM CLR 09/M02 A3034 RMK AO2 T00921022
KERV 151615Z AUTO 34012KT 10SM CLR 09/M02 A3033 RMK AO2 T00921023
KERV 151555Z AUTO 35011KT 10SM CLR 09/M02 A3033 RMK AO2 T00921019
KERV 151535Z AUTO 35008KT 10SM CLR 08/M02 A3032 RMK AO2 T00811020
KERV 151515Z AUTO 34005KT 10SM CLR 06/M02 A3031 RMK AO2 T00611016
KERV 151455Z AUTO 33006KT 10SM CLR 05/M02 A3031 RMK AO2 T00531019
KERV 151435Z AUTO 33006KT 10SM CLR 05/M02 A3031 RMK AO2 T00501020
KERV 151415Z AUTO 32005KT 10SM CLR 05/M02 A3031 RMK AO2 T00501017
KERV 151355Z AUTO 33006KT 10SM CLR 04/M02 A3029 RMK AO2 T00421016
KERV 151335Z AUTO 00000KT 10SM CLR 04/M02 A3029 RMK AO2 T00361021
KERV 151315Z AUTO 00000KT 10SM CLR 04/M02 A3029 RMK AO2 T00421023
KERV 151255Z AUTO 34003KT 10SM CLR 05/M02 A3029 RMK AO2 T00501018
KERV 151235Z AUTO 00000KT 10SM CLR 05/M02 A3028 RMK AO2 T00531025
KERV 151215Z AUTO 00000KT 10SM CLR 06/M02 A3027 RMK AO2 T00571020
KERV 151155Z AUTO 32003KT 10SM CLR 06/M02 A3027 RMK AO2 T00581022 10106 20056
KERV 151135Z AUTO 32004KT 10SM CLR 06/M02 A3026 RMK AO2 T00571020
KERV 151115Z AUTO 00000KT 10SM CLR 06/M02 A3026 RMK AO2 T00571022
KERV 151055Z AUTO 33003KT 10SM SCT120 06/M03 A3026 RMK AO2 T00601027
KERV 151035Z AUTO 34004KT 10SM OVC120 07/M03 A3026 RMK AO2 T00671029
KERV 151015Z AUTO 35005KT 10SM OVC110 07/M03 A3026 RMK AO2 T00701032
KERV 150955Z AUTO 36006KT 10SM OVC100 08/M04 A3027 RMK AO2 T00751038
KERV 150935Z AUTO 35005G08KT 10SM OVC110 08/M04 A3027 RMK AO2 T00771039
KERV 150915Z AUTO 36005KT 10SM BKN120 08/M04 A3026 RMK AO2 T00781038
KERV 150855Z AUTO 02006G14KT 10SM OVC120 08/M04 A3024 RMK AO2 T00781038
KERV 150835Z AUTO 01007KT 10SM OVC110 08/M03 A3024 RMK AO2 T00791034
KERV 150815Z AUTO 01009G16KT 10SM BKN100 BKN120 08/M03 A3023 RMK AO2 T00821030
KERV 150755Z AUTO 01008KT 10SM SCT100 BKN120 09/M03 A3022 RMK AO2 T00851029
KERV 150735Z AUTO 01008KT 10SM OVC100 09/M03 A3022 RMK AO2 T00881028
KERV 150715Z AUTO 01007KT 10SM OVC110 09/M03 A3021 RMK AO2 T00921027
KERV 150655Z AUTO 36007G15KT 10SM OVC110 09/M03 A3022 RMK AO2 T00921031
KERV 150635Z AUTO 03012G15KT 10SM OVC100 09/M03 A3020 RMK AO2 T00921033
KERV 150615Z AUTO 02007KT 10SM BKN100 OVC120 09/M04 A3021 RMK AO2 T00921039
KERV 150555Z AUTO 01009KT 10SM BKN100 OVC120 11/M03 A3020 RMK AO2 T01061030 10135 20106 401620036
KERV 150535Z AUTO 03009G14KT 10SM SCT095 OVC120 11/M03 A3019 RMK AO2 T01061035
KERV 150515Z AUTO 36007G14KT 10SM OVC110 11/M04 A3019 RMK AO2 T01061040
KERV 150455Z AUTO 01007KT 10SM OVC110 11/M04 A3018 RMK AO2 T01061040
KERV 150435Z AUTO 01006KT 10SM SCT120 11/M04 A3017 RMK AO2 T01101038
KERV 150415Z AUTO 02007KT 10SM CLR 11/M04 A3015 RMK AO2 T01131037
KERV 150355Z AUTO 02008KT 10SM CLR 11/M03 A3015 RMK AO2 T01131034
KERV 150335Z AUTO 03006KT 10SM CLR 12/M03 A3014 RMK AO2 T01171028
KERV 150315Z AUTO 02007KT 10SM CLR 11/M03 A3013 RMK AO2 T01131027
KERV 150255Z AUTO 02008KT 10SM CLR 12/M02 A3012 RMK AO2 T01151024
KERV 150235Z AUTO 02005KT 10SM CLR 12/M02 A3012 RMK AO2 T01201022
KERV 150220Z AUTO 03008KT 10SM CLR 12/M02 A3011 RMK AO2 T01201021
KERV 150155Z AUTO 03004KT 10SM SCT110 12/M02 A3010 RMK AO2 T01201023
KERV 150140Z AUTO 02004KT 10SM SCT110 12/M02 A3009 RMK AO2 T01201017
KERV 150115Z AUTO 00000KT 10SM SCT120 12/M02 A3007 RMK AO2 T01201018
KERV 150055Z AUTO 00000KT 10SM SCT120 12/M02 A3007 RMK AO2 T01211018
KERV 150035Z AUTO 03003KT 10SM SCT120 12/M02 A3005 RMK AO2 T01241019
KERV 150015Z AUTO 03003KT 10SM CLR 13/M01 A3004 RMK AO2 T01331011
KERV 142355Z AUTO 04003KT 10SM CLR 14/M01 A3004 RMK AO2 T01351012 10162 20135
KERV 142335Z AUTO 04003KT 10SM SCT120 14/M02 A3002 RMK AO2 T01351022
KERV 142315Z AUTO 03003KT 10SM SCT110 15/M02 A3002 RMK AO2 T01451024
KERV 142255Z AUTO 04006KT 10SM BKN110 15/M03 A3001 RMK AO2 T01481029
KERV 142235Z AUTO 03007KT 10SM SCT120 15/M04 A3001 RMK AO2 T01521037
KERV 142215Z AUTO 03006KT 10SM SCT120 16/M04 A3001 RMK AO2 T01551041
KERV 142155Z AUTO 04007KT 10SM CLR 16/M03 A3000 RMK AO2 T01621034
KERV 142135Z AUTO 03007KT 10SM CLR 16/M04 A3000 RMK AO2 T01621042
KERV 142115Z AUTO 03009KT 10SM CLR 16/M05 A3000 RMK AO2 T01621050
KERV 142055Z AUTO 04006KT 10SM CLR 16/M04 A2999 RMK AO2 T01621040
KERV 142035Z AUTO 03008KT 10SM CLR 16/M04 A2999 RMK AO2 T01621039
KERV 142015Z AUTO 02010KT 10SM CLR 16/M04 A2999 RMK AO2 T01621040
KERV 141955Z AUTO 04008KT 10SM CLR 16/M04 A2999 RMK AO2 T01621039
KERV 141935Z AUTO 04008KT 10SM CLR 16/M04 A2998 RMK AO2 T01621040
KERV 141915Z AUTO 01008KT 10SM CLR 16/M03 A2998 RMK AO2 T01621034
KERV 141855Z AUTO 03008KT 10SM CLR 15/M02 A2998 RMK AO2 T01521021
KERV 141835Z AUTO 36010KT 10SM CLR 15/00 A2999 RMK AO2 T01501005
KERV 141815Z AUTO 36006KT 10SM CLR 15/00 A3000 RMK AO2 T01480001
KERV 141755Z AUTO 35010KT 10SM CLR 15/02 A3000 RMK AO2 T01480020 10148 20036
KERV 141735Z AUTO 35005KT 10SM CLR 15/03 A3001 RMK AO2 T01480029
KERV 141715Z AUTO 32005KT 10SM CLR 14/04 A3001 RMK AO2 T01350036
KERV 141655Z AUTO 30006KT 10SM CLR 14/04 A3001 RMK AO2 T01350040
KERV 141635Z AUTO 32006KT 10SM CLR 12/04 A3001 RMK AO2 T01200040
KERV 141615Z AUTO 32006KT 10SM CLR 11/04 A3001 RMK AO2 T01110037
KERV 141555Z AUTO 30004KT 10SM CLR 11/04 A3001 RMK AO2 T01060044
KERV 141535Z AUTO 32005KT 10SM CLR 08/04 A3000 RMK AO2 T00820037